createdAt,value
2023-01-29T00:04:46.652Z,35.79
2023-01-29T00:10:09.119Z,35.79
2023-01-29T00:15:30.795Z,35.73
2023-01-29T00:20:52.524Z,35.51
2023-01-29T00:26:15.047Z,35.96
2023-01-29T00:31:36.954Z,35.47
2023-01-29T00:37:05.130Z,35.95
2023-01-29T00:42:45.429Z,35.96
2023-01-29T00:48:07.224Z,35.60
2023-01-29T00:53:29.611Z,35.73
2023-01-29T00:58:51.346Z,35.86
2023-01-29T01:04:13.601Z,35.88
2023-01-29T01:09:55.206Z,35.63
2023-01-29T01:15:18.035Z,35.71
2023-01-29T01:20:40.148Z,35.52
2023-01-29T01:26:01.928Z,35.83
2023-01-29T01:31:23.753Z,35.67
2023-01-29T01:36:45.770Z,35.46
2023-01-29T01:42:13.299Z,35.55
2023-01-29T01:47:43.808Z,35.43
2023-01-29T01:53:11.031Z,35.21
2023-01-29T01:58:38.395Z,35.44
2023-01-29T02:04:45.275Z,35.20
2023-01-29T02:10:14.153Z,35.40
2023-01-29T02:15:36.106Z,35.44
2023-01-29T02:21:31.475Z,35.55
2023-01-29T02:27:00.393Z,35.52
2023-01-29T02:32:34.512Z,35.31
2023-01-29T02:38:01.819Z,35.13
2023-01-29T02:43:47.579Z,35.24
2023-01-29T02:49:22.028Z,35.04
2023-01-29T02:54:53.023Z,35.04
2023-01-29T03:00:18.772Z,35.10
2023-01-29T03:05:43.604Z,35.05
2023-01-29T03:11:07.320Z,34.99
2023-01-29T03:16:44.095Z,35.29
2023-01-29T03:22:08.650Z,35.08
2023-01-29T03:27:55.266Z,35.12
2023-01-29T03:33:19.537Z,35.13
2023-01-29T03:38:41.405Z,35.44
2023-01-29T03:44:22.112Z,35.12
2023-01-29T03:50:25.693Z,35.27
2023-01-29T03:56:07.276Z,35.07
2023-01-29T04:01:45.287Z,34.92
2023-01-29T04:07:17.655Z,35.29
2023-01-29T04:12:45.963Z,35.08
2023-01-29T04:18:07.691Z,35.25
2023-01-29T04:23:29.411Z,35.26
2023-01-29T04:29:16.636Z,34.91
2023-01-29T04:35:03.484Z,34.80
2023-01-29T04:40:40.604Z,35.16
2023-01-29T04:46:02.504Z,35.17
2023-01-29T04:52:00.619Z,35.22
2023-01-29T04:57:29.824Z,35.11
2023-01-29T05:02:51.739Z,35.09
2023-01-29T05:08:16.370Z,34.79
2023-01-29T05:13:41.931Z,34.91
2023-01-29T05:19:03.745Z,35.22
2023-01-29T05:24:26.947Z,34.90
2023-01-29T05:29:48.804Z,34.90
2023-01-29T05:35:10.494Z,35.08
2023-01-29T05:40:32.248Z,35.01
2023-01-29T05:46:01.099Z,34.94
2023-01-29T05:51:23.208Z,35.10
2023-01-29T05:56:44.866Z,35.22
2023-01-29T06:02:06.743Z,35.32
2023-01-29T06:07:28.452Z,34.96
2023-01-29T06:12:50.233Z,35.26
2023-01-29T06:18:11.941Z,34.98
2023-01-29T06:23:33.745Z,34.84
2023-01-29T06:28:55.495Z,34.94
2023-01-29T06:34:17.244Z,35.15
2023-01-29T06:39:38.927Z,34.78
2023-01-29T06:45:00.920Z,35.13
2023-01-29T06:50:22.789Z,34.49
2023-01-29T06:55:51.015Z,34.02
2023-01-29T07:01:25.447Z,33.48
2023-01-29T07:06:55.135Z,32.76
2023-01-29T07:12:16.879Z,32.62
2023-01-29T07:17:39.631Z,32.40
2023-01-29T07:23:01.394Z,32.39
2023-01-29T07:28:23.128Z,32.11
2023-01-29T07:33:45.072Z,32.13
2023-01-29T07:39:06.749Z,32.46
2023-01-29T07:44:28.524Z,32.35
2023-01-29T07:49:50.207Z,32.49
2023-01-29T07:55:11.935Z,32.93
2023-01-29T08:00:33.714Z,32.95
2023-01-29T08:05:55.416Z,33.07
2023-01-29T08:11:17.355Z,33.42
2023-01-29T08:16:39.189Z,33.32
2023-01-29T08:22:01.439Z,33.29
2023-01-29T08:27:23.180Z,32.79
2023-01-29T08:32:44.920Z,32.40
2023-01-29T08:38:06.898Z,32.17
2023-01-29T08:43:28.565Z,31.93
2023-01-29T08:48:50.296Z,31.31
2023-01-29T08:54:11.993Z,31.52
2023-01-29T08:59:33.706Z,31.30
2023-01-29T09:04:56.007Z,31.13
2023-01-29T09:10:17.814Z,31.12
2023-01-29T09:15:39.500Z,30.71
2023-01-29T09:21:02.789Z,30.65
2023-01-29T09:26:24.608Z,30.79
2023-01-29T09:31:46.697Z,30.95
2023-01-29T09:37:08.515Z,31.59
2023-01-29T09:42:48.789Z,31.81
2023-01-29T09:48:12.786Z,31.71
2023-01-29T09:53:46.169Z,32.16
2023-01-29T09:59:12.830Z,32.26
2023-01-29T10:05:03.463Z,32.31
2023-01-29T10:10:40.084Z,32.91
2023-01-29T10:16:41.742Z,32.97
2023-01-29T10:22:21.454Z,33.25
2023-01-29T10:27:49.960Z,33.02
2023-01-29T10:33:25.520Z,33.43
2023-01-29T10:38:49.357Z,33.46
2023-01-29T10:44:32.020Z,32.88
2023-01-29T10:50:15.737Z,32.71
2023-01-29T10:56:22.672Z,32.49
2023-01-29T11:01:45.171Z,32.69
2023-01-29T11:07:07.040Z,32.52
2023-01-29T11:12:33.593Z,31.91
2023-01-29T11:18:13.458Z,31.91
2023-01-29T11:23:35.138Z,32.02
2023-01-29T11:28:57.150Z,32.01
2023-01-29T11:34:22.166Z,31.50
2023-01-29T11:39:47.361Z,31.95
2023-01-29T11:45:30.086Z,31.99
2023-01-29T11:51:00.736Z,31.88
2023-01-29T11:56:27.238Z,31.80
2023-01-29T12:01:48.980Z,31.21
2023-01-29T12:07:18.785Z,31.00
2023-01-29T12:12:43.210Z,31.34
2023-01-29T12:18:20.309Z,31.20
2023-01-29T12:24:02.237Z,31.44
2023-01-29T12:29:48.136Z,31.46
2023-01-29T12:35:22.672Z,31.14
2023-01-29T12:40:55.376Z,31.26
2023-01-29T12:46:29.519Z,31.02
2023-01-29T12:51:54.753Z,31.23
2023-01-29T12:57:32.276Z,31.15
2023-01-29T13:03:03.755Z,31.29
2023-01-29T13:08:32.722Z,31.76
2023-01-29T13:13:59.612Z,31.46
2023-01-29T13:19:28.620Z,31.77
2023-01-29T13:25:03.640Z,31.66
2023-01-29T13:30:32.933Z,31.85
2023-01-29T13:36:00.380Z,31.87
2023-01-29T13:41:33.450Z,31.78
2023-01-29T13:46:58.171Z,31.51
2023-01-29T13:52:37.002Z,31.37
2023-01-29T13:58:00.688Z,30.89
2023-01-29T14:03:25.113Z,30.89
2023-01-29T14:08:47.635Z,30.84
2023-01-29T14:14:48.321Z,30.49
2023-01-29T14:20:20.685Z,30.10
2023-01-29T14:25:43.037Z,29.92
2023-01-29T14:31:07.675Z,29.97
2023-01-29T14:36:38.529Z,30.15
2023-01-29T14:42:03.193Z,30.13
2023-01-29T14:47:27.680Z,29.79
2023-01-29T14:52:54.117Z,29.96
2023-01-29T14:58:26.302Z,29.93
2023-01-29T15:03:55.621Z,30.24
2023-01-29T15:09:41.995Z,30.22
2023-01-29T15:15:09.880Z,30.21
2023-01-29T15:20:36.895Z,30.25
2023-01-29T15:26:04.870Z,30.65
2023-01-29T15:31:28.629Z,30.67
2023-01-29T15:36:51.185Z,30.78
2023-01-29T15:42:23.659Z,31.14
2023-01-29T15:47:45.426Z,31.35
2023-01-29T15:53:13.147Z,31.16
2023-01-29T15:58:35.146Z,31.43
2023-01-29T16:04:01.249Z,31.49
2023-01-29T16:09:26.303Z,31.45
2023-01-29T16:14:50.656Z,31.87
2023-01-29T16:20:45.693Z,31.57
2023-01-29T16:26:09.643Z,31.38
2023-01-29T16:31:32.752Z,31.49
2023-01-29T16:36:56.360Z,31.34
2023-01-29T16:42:20.209Z,31.34
2023-01-29T16:47:42.062Z,31.26
2023-01-29T16:53:12.504Z,30.70
2023-01-29T16:58:34.988Z,30.78
2023-01-29T17:04:03.126Z,30.35
2023-01-29T17:09:29.978Z,29.95
2023-01-29T17:15:00.875Z,29.74
2023-01-29T17:20:23.371Z,29.57
2023-01-29T17:25:46.574Z,29.36
2023-01-29T17:31:08.842Z,29.81
2023-01-29T17:36:30.724Z,29.47
2023-01-29T17:41:54.522Z,29.64
2023-01-29T17:47:16.258Z,29.84
2023-01-29T17:52:37.930Z,30.29
2023-01-29T17:57:59.656Z,30.83
2023-01-29T18:03:21.696Z,30.87
2023-01-29T18:08:43.416Z,31.02
2023-01-29T18:14:13.541Z,30.84
2023-01-29T18:19:36.227Z,31.55
2023-01-29T18:24:57.913Z,31.49
2023-01-29T18:30:19.696Z,31.41
2023-01-29T18:35:41.364Z,31.41
2023-01-29T18:41:12.352Z,31.84
2023-01-29T18:46:34.092Z,31.52
2023-01-29T18:51:55.936Z,31.86
2023-01-29T18:58:27.713Z,31.77
2023-01-29T19:02:59.697Z,31.61
2023-01-29T19:08:21.364Z,31.74
2023-01-29T19:13:43.200Z,31.23
2023-01-29T19:19:04.894Z,30.97
2023-01-29T19:24:27.695Z,30.71
2023-01-29T19:29:49.395Z,30.74
2023-01-29T19:35:11.169Z,30.78
2023-01-29T19:40:32.936Z,31.22
2023-01-29T19:46:01.156Z,31.43
2023-01-29T19:51:23.503Z,31.21
2023-01-29T19:56:45.636Z,31.33
2023-01-29T20:02:07.406Z,31.44
2023-01-29T20:07:29.142Z,31.24
2023-01-29T20:12:51.386Z,31.00
2023-01-29T20:18:14.382Z,31.45
2023-01-29T20:23:38.644Z,30.88
2023-01-29T20:29:00.535Z,30.75
2023-01-29T20:34:22.505Z,30.67
2023-01-29T20:39:44.187Z,30.51
2023-01-29T20:45:06.458Z,30.29
2023-01-29T20:50:28.411Z,29.82
2023-01-29T20:55:50.138Z,30.03
2023-01-29T21:01:16.914Z,29.93
2023-01-29T21:06:38.675Z,30.11
2023-01-29T21:12:00.517Z,29.96
2023-01-29T21:17:22.229Z,30.15
2023-01-29T21:22:44.232Z,29.89
2023-01-29T21:28:06.418Z,29.80
2023-01-29T21:33:28.179Z,29.87
2023-01-29T21:38:49.915Z,30.13
2023-01-29T21:44:12.453Z,29.80
2023-01-29T21:49:34.213Z,30.01
2023-01-29T21:54:56.126Z,30.16
2023-01-29T22:00:18.867Z,30.30
2023-01-29T22:05:40.912Z,30.21
2023-01-29T22:11:07.208Z,30.76
2023-01-29T22:16:30.033Z,30.41
2023-01-29T22:21:53.117Z,31.01
2023-01-29T22:27:15.499Z,31.11
2023-01-29T22:32:37.470Z,30.83
2023-01-29T22:37:59.310Z,31.09
2023-01-29T22:43:22.131Z,31.45
2023-01-29T22:48:43.979Z,31.50
2023-01-29T22:54:05.713Z,31.39
2023-01-29T22:59:28.069Z,31.82
2023-01-29T23:04:50.513Z,31.54
2023-01-29T23:10:14.832Z,31.44
2023-01-29T23:15:36.710Z,31.67
2023-01-29T23:20:58.584Z,31.90
2023-01-29T23:26:39.304Z,31.85
2023-01-29T23:32:00.995Z,31.45
2023-01-29T23:37:22.920Z,31.90
2023-01-29T23:42:44.727Z,31.53
2023-01-29T23:48:06.698Z,31.91
2023-01-29T23:53:28.422Z,31.98
2023-01-29T23:58:56.875Z,31.46
